createdAt,value
2017-12-12T00:00:36.624Z,4.10
2017-12-12T00:03:04.096Z,4.20
2017-12-12T00:05:31.550Z,3.30
2017-12-12T00:07:59.012Z,4.03
2017-12-12T00:10:26.479Z,3.40
2017-12-12T00:12:53.943Z,3.77
2017-12-12T00:15:21.504Z,3.23
2017-12-12T00:17:49.067Z,3.60
2017-12-12T00:20:17.208Z,4.20
2017-12-12T00:22:45.463Z,4.50
2017-12-12T00:25:12.962Z,4.90
2017-12-12T00:27:40.527Z,4.00
2017-12-12T00:30:07.982Z,3.80
2017-12-12T00:32:35.444Z,3.90
2017-12-12T00:35:03.706Z,3.73
2017-12-12T00:37:31.169Z,3.97
2017-12-12T00:39:58.638Z,4.30
2017-12-12T00:42:26.955Z,3.63
2017-12-12T00:44:54.422Z,3.97
2017-12-12T00:47:21.873Z,3.30
2017-12-12T00:49:49.339Z,3.87
2017-12-12T00:52:16.810Z,3.70
2017-12-12T00:54:44.345Z,4.63
2017-12-12T00:57:11.842Z,3.70
2017-12-12T00:59:39.407Z,4.60
2017-12-12T01:02:06.858Z,3.80
2017-12-12T01:04:34.414Z,4.13
2017-12-12T01:07:01.873Z,4.30
2017-12-12T01:09:29.333Z,4.30
2017-12-12T01:11:57.819Z,3.70
2017-12-12T01:14:25.425Z,4.03
2017-12-12T01:16:52.895Z,4.40
2017-12-12T01:19:20.372Z,3.87
2017-12-12T01:21:48.119Z,4.03
2017-12-12T01:24:16.336Z,4.50
2017-12-12T01:26:44.619Z,5.33
2017-12-12T01:29:13.238Z,5.67
2017-12-12T01:31:40.703Z,6.43
2017-12-12T01:34:08.560Z,6.00
2017-12-12T01:36:36.835Z,4.90
2017-12-12T01:39:04.336Z,6.40
2017-12-12T01:41:32.075Z,5.30
2017-12-12T01:43:59.554Z,4.80
2017-12-12T01:46:27.025Z,4.10
2017-12-12T01:48:55.600Z,3.93
2017-12-12T01:51:23.050Z,3.77
2017-12-12T01:53:50.517Z,4.87
2017-12-12T01:56:17.978Z,4.67
2017-12-12T01:58:45.786Z,4.40
2017-12-12T02:01:13.297Z,3.50
2017-12-12T02:03:41.582Z,3.67
2017-12-12T02:06:09.823Z,3.17
2017-12-12T02:08:37.287Z,3.60
2017-12-12T02:11:04.787Z,3.17
2017-12-12T02:13:33.034Z,3.30
2017-12-12T02:16:00.850Z,2.97
2017-12-12T02:18:28.716Z,4.07
2017-12-12T02:20:56.195Z,3.33
2017-12-12T02:23:23.694Z,4.37
2017-12-12T02:25:51.916Z,3.67
2017-12-12T02:28:19.406Z,3.07
2017-12-12T02:30:46.866Z,3.40
2017-12-12T02:33:15.854Z,3.87
2017-12-12T02:35:43.459Z,2.67
2017-12-12T02:38:10.882Z,2.23
2017-12-12T02:40:39.112Z,3.00
2017-12-12T02:43:06.599Z,2.23
2017-12-12T02:45:34.054Z,2.60
2017-12-12T02:48:01.515Z,2.70
2017-12-12T02:50:29.080Z,2.00
2017-12-12T02:52:57.236Z,2.53
2017-12-12T02:55:24.715Z,2.87
2017-12-12T02:57:53.950Z,2.80
2017-12-12T03:00:21.471Z,2.40
2017-12-12T03:02:48.946Z,2.57
2017-12-12T03:05:17.187Z,2.40
2017-12-12T03:07:44.670Z,2.53
2017-12-12T03:10:12.935Z,2.03
2017-12-12T03:12:40.710Z,2.33
2017-12-12T03:15:08.984Z,2.73
2017-12-12T03:17:36.524Z,3.13
2017-12-12T03:20:03.978Z,2.50
2017-12-12T03:22:31.538Z,3.40
2017-12-12T03:24:59.103Z,3.87
2017-12-12T03:27:26.592Z,3.90
2017-12-12T03:29:54.386Z,3.87
2017-12-12T03:32:21.977Z,3.83
2017-12-12T03:34:49.443Z,3.60
2017-12-12T03:37:17.163Z,3.53
2017-12-12T03:39:45.268Z,3.97
2017-12-12T03:42:12.725Z,4.43
2017-12-12T03:44:40.195Z,3.70
2017-12-12T03:47:08.475Z,3.30
2017-12-12T03:49:36.281Z,4.07
2017-12-12T03:52:04.273Z,3.10
2017-12-12T03:54:32.018Z,2.90
2017-12-12T03:56:59.787Z,2.67
2017-12-12T03:59:27.238Z,1.70
2017-12-12T04:01:54.762Z,2.17
2017-12-12T04:04:22.244Z,2.13
2017-12-12T04:06:49.755Z,2.37
2017-12-12T04:09:17.319Z,2.57
2017-12-12T04:11:45.575Z,2.40
2017-12-12T04:14:13.102Z,2.10
2017-12-12T04:16:40.603Z,2.23
2017-12-12T04:19:08.066Z,2.30
2017-12-12T04:21:36.159Z,1.70
2017-12-12T04:24:04.770Z,2.13
2017-12-12T04:26:32.247Z,2.10
2017-12-12T04:28:59.698Z,1.50
2017-12-12T04:31:27.183Z,1.77
2017-12-12T04:33:56.233Z,1.93
2017-12-12T04:36:23.700Z,1.60
2017-12-12T04:38:51.160Z,1.83
2017-12-12T04:41:18.646Z,2.20
2017-12-12T04:43:46.206Z,1.80
2017-12-12T04:46:13.672Z,2.97
2017-12-12T04:48:41.946Z,2.60
2017-12-12T04:51:09.401Z,1.53
2017-12-12T04:53:37.672Z,1.63
2017-12-12T04:56:05.239Z,2.00
2017-12-12T04:58:33.497Z,2.93
2017-12-12T05:01:00.963Z,2.60
2017-12-12T05:03:28.431Z,1.70
2017-12-12T05:05:56.672Z,3.20
2017-12-12T05:08:24.123Z,2.07
2017-12-12T05:10:51.623Z,2.40
2017-12-12T05:13:19.170Z,2.20
2017-12-12T05:15:46.635Z,2.00
2017-12-12T05:18:15.366Z,2.47
2017-12-12T05:20:42.896Z,2.20
2017-12-12T05:23:11.152Z,1.70
2017-12-12T05:25:39.379Z,2.00
2017-12-12T05:28:06.874Z,1.97
2017-12-12T05:30:34.346Z,2.10
2017-12-12T05:33:02.610Z,3.67
2017-12-12T05:35:30.428Z,2.23
2017-12-12T05:37:57.927Z,2.80
2017-12-12T05:40:25.664Z,2.40
2017-12-12T05:42:53.366Z,2.63
2017-12-12T05:45:20.857Z,2.57
2017-12-12T05:47:48.374Z,2.73
2017-12-12T05:50:15.850Z,3.63
2017-12-12T05:52:44.070Z,2.80
2017-12-12T05:55:11.526Z,2.80
2017-12-12T05:57:39.000Z,3.00
2017-12-12T06:00:06.478Z,4.30
2017-12-12T06:02:34.718Z,4.20
2017-12-12T06:05:02.208Z,3.30
2017-12-12T06:07:29.766Z,4.00
2017-12-12T06:09:57.267Z,3.93
2017-12-12T06:12:24.782Z,4.60
2017-12-12T06:14:53.063Z,5.77
2017-12-12T06:17:20.535Z,5.23
2017-12-12T06:19:48.795Z,4.30
2017-12-12T06:22:17.893Z,4.30
2017-12-12T06:24:46.129Z,4.03
2017-12-12T06:27:14.227Z,4.87
2017-12-12T06:29:41.786Z,4.80
2017-12-12T06:32:09.251Z,4.50
2017-12-12T06:34:37.492Z,4.33
2017-12-12T06:37:04.984Z,4.60
2017-12-12T06:39:33.456Z,4.03
2017-12-12T06:42:01.703Z,4.50
2017-12-12T06:44:29.198Z,3.50
2017-12-12T06:46:57.359Z,4.37
2017-12-12T06:49:24.835Z,4.07
2017-12-12T06:51:53.099Z,4.00
2017-12-12T06:54:21.383Z,4.10
2017-12-12T06:56:49.655Z,2.90
2017-12-12T06:59:17.948Z,1.23
2017-12-12T07:01:46.195Z,1.03
2017-12-12T07:04:14.155Z,1.00
2017-12-12T07:06:41.754Z,0.93
2017-12-12T07:09:10.007Z,0.90
2017-12-12T07:11:37.467Z,0.80
2017-12-12T07:14:05.708Z,0.80
2017-12-12T07:16:33.384Z,0.90
2017-12-12T07:19:00.854Z,1.10
2017-12-12T07:21:28.411Z,1.00
2017-12-12T07:23:56.435Z,1.03
2017-12-12T07:26:23.883Z,0.93
2017-12-12T07:28:51.762Z,1.17
2017-12-12T07:31:19.263Z,1.17
2017-12-12T07:33:46.724Z,1.10
2017-12-12T07:36:14.248Z,0.93
2017-12-12T07:38:41.735Z,1.10
2017-12-12T07:41:09.215Z,1.13
2017-12-12T07:43:37.462Z,1.13
2017-12-12T07:46:04.924Z,1.00
2017-12-12T07:48:32.394Z,1.33
2017-12-12T07:51:00.663Z,1.60
2017-12-12T07:53:28.926Z,1.67
2017-12-12T07:55:56.953Z,1.60
2017-12-12T07:58:24.475Z,1.53
2017-12-12T08:00:52.720Z,1.80
2017-12-12T08:03:20.295Z,1.90
2017-12-12T08:05:47.764Z,2.07
2017-12-12T08:08:16.026Z,1.50
2017-12-12T08:10:43.515Z,1.23
2017-12-12T08:13:11.038Z,1.67
2017-12-12T08:15:39.315Z,1.73
2017-12-12T08:18:06.880Z,1.93
2017-12-12T08:20:34.438Z,1.43
2017-12-12T08:23:01.898Z,2.50
2017-12-12T08:25:29.450Z,1.67
2017-12-12T08:27:56.952Z,1.30
2017-12-12T08:30:24.402Z,1.90
2017-12-12T08:32:51.879Z,2.43
2017-12-12T08:35:19.383Z,1.63
2017-12-12T08:37:46.863Z,1.73
2017-12-12T08:40:14.330Z,1.70
2017-12-12T08:42:41.851Z,2.00
2017-12-12T08:45:09.411Z,1.40
2017-12-12T08:47:38.378Z,2.00
2017-12-12T08:50:05.865Z,2.07
2017-12-12T08:52:34.094Z,1.80
2017-12-12T08:55:01.564Z,1.90
2017-12-12T08:57:29.014Z,2.00
2017-12-12T08:59:56.566Z,2.60
2017-12-12T09:02:24.024Z,2.40
2017-12-12T09:04:51.484Z,2.13
2017-12-12T09:07:18.950Z,3.30
2017-12-12T09:09:46.410Z,3.10
2017-12-12T09:12:13.923Z,2.83
2017-12-12T09:14:42.168Z,3.03
2017-12-12T09:17:09.618Z,3.17
2017-12-12T09:19:37.083Z,2.73
2017-12-12T09:22:05.342Z,2.80
2017-12-12T09:24:32.810Z,2.33
2017-12-12T09:27:00.263Z,2.13
2017-12-12T09:29:27.730Z,2.13
2017-12-12T09:31:55.984Z,2.27
2017-12-12T09:34:23.460Z,1.60
2017-12-12T09:36:50.935Z,1.93
2017-12-12T09:39:19.152Z,1.40
2017-12-12T09:41:46.638Z,1.87
2017-12-12T09:44:14.106Z,1.47
2017-12-12T09:46:42.370Z,1.80
2017-12-12T09:49:09.826Z,1.50
2017-12-12T09:51:37.303Z,2.07
2017-12-12T09:54:05.530Z,1.60
2017-12-12T09:56:33.000Z,1.30
2017-12-12T09:59:00.471Z,1.53
2017-12-12T10:01:27.935Z,1.40
2017-12-12T10:03:55.416Z,1.17
2017-12-12T10:06:23.626Z,1.10
2017-12-12T10:08:51.086Z,1.20
2017-12-12T10:11:18.554Z,0.97
2017-12-12T10:13:46.048Z,1.20
2017-12-12T10:16:14.287Z,1.53
2017-12-12T10:18:41.775Z,0.90
2017-12-12T10:21:10.047Z,1.20
2017-12-12T10:23:37.602Z,0.90
2017-12-12T10:26:05.162Z,1.07
2017-12-12T10:28:32.614Z,1.10
2017-12-12T10:31:00.129Z,1.03
2017-12-12T10:33:27.637Z,1.00
2017-12-12T10:35:55.895Z,0.90
2017-12-12T10:38:23.372Z,0.70
2017-12-12T10:40:51.654Z,0.90
2017-12-12T10:43:19.878Z,1.27
2017-12-12T10:45:47.348Z,0.80
2017-12-12T10:48:14.808Z,1.70
2017-12-12T10:50:42.266Z,1.40
2017-12-12T10:53:09.748Z,1.40
2017-12-12T10:55:38.023Z,1.60
2017-12-12T10:58:06.269Z,1.57
2017-12-12T11:00:33.739Z,1.20
2017-12-12T11:03:01.195Z,1.73
2017-12-12T11:05:28.673Z,1.90
2017-12-12T11:07:57.617Z,2.30
2017-12-12T11:10:25.215Z,1.53
2017-12-12T11:12:52.699Z,2.40
2017-12-12T11:15:20.946Z,2.10
2017-12-12T11:17:48.402Z,2.80
2017-12-12T11:20:16.175Z,2.47
2017-12-12T11:22:43.627Z,2.70
2017-12-12T11:25:11.100Z,3.47
2017-12-12T11:27:39.355Z,2.90
2017-12-12T11:30:06.978Z,2.97
2017-12-12T11:32:35.359Z,2.67
2017-12-12T11:35:02.850Z,2.53
2017-12-12T11:37:37.388Z,3.10
2017-12-12T11:40:04.852Z,3.20
2017-12-12T11:42:33.093Z,2.77
2017-12-12T11:45:00.553Z,2.77
2017-12-12T11:47:28.027Z,2.60
2017-12-12T11:49:56.291Z,2.57
2017-12-12T11:52:23.752Z,2.80
2017-12-12T11:54:51.987Z,3.23
2017-12-12T11:57:19.456Z,3.53
2017-12-12T11:59:46.910Z,3.30
2017-12-12T12:02:14.399Z,3.63
2017-12-12T12:04:41.851Z,3.30
2017-12-12T12:07:09.312Z,3.00
2017-12-12T12:09:36.793Z,2.77
2017-12-12T12:12:04.258Z,3.57
2017-12-12T12:14:31.720Z,2.90
2017-12-12T12:16:59.188Z,2.80
2017-12-12T12:19:26.661Z,2.80
2017-12-12T12:21:54.136Z,2.20
2017-12-12T12:24:21.616Z,3.27
2017-12-12T12:26:49.071Z,2.80
2017-12-12T12:29:17.255Z,3.13
2017-12-12T12:31:45.475Z,2.63
2017-12-12T12:34:12.936Z,2.07
2017-12-12T12:36:40.398Z,2.10
2017-12-12T12:39:07.854Z,1.80
2017-12-12T12:41:35.315Z,1.70
2017-12-12T12:44:02.795Z,2.20
2017-12-12T12:46:30.252Z,1.73
2017-12-12T12:48:57.713Z,1.50
2017-12-12T12:51:25.179Z,1.67
2017-12-12T12:53:53.448Z,2.00
2017-12-12T12:56:20.919Z,1.90
2017-12-12T12:58:49.144Z,1.83
2017-12-12T13:01:16.612Z,1.70
2017-12-12T13:03:44.074Z,1.60
2017-12-12T13:06:11.522Z,2.03
2017-12-12T13:08:38.989Z,1.93
2017-12-12T13:11:06.454Z,1.63
2017-12-12T13:13:34.024Z,1.23
2017-12-12T13:16:01.483Z,1.30
2017-12-12T13:18:28.955Z,1.47
2017-12-12T13:20:57.171Z,1.53
2017-12-12T13:23:24.640Z,1.30
2017-12-12T13:25:52.109Z,1.50
2017-12-12T13:28:19.559Z,1.20
2017-12-12T13:30:47.028Z,1.50
2017-12-12T13:33:14.485Z,1.50
2017-12-12T13:35:41.939Z,1.03
2017-12-12T13:38:09.418Z,1.33
2017-12-12T13:40:36.868Z,1.47
2017-12-12T13:43:04.348Z,1.27
2017-12-12T13:45:31.806Z,1.47
2017-12-12T13:47:59.364Z,1.10
2017-12-12T13:50:26.827Z,1.67
2017-12-12T13:52:54.298Z,1.50
2017-12-12T13:55:21.747Z,1.70
2017-12-12T13:57:49.214Z,2.33
2017-12-12T14:00:16.675Z,2.40
2017-12-12T14:02:44.131Z,2.40
2017-12-12T14:05:11.594Z,3.33
2017-12-12T14:07:39.060Z,3.73
2017-12-12T14:10:06.518Z,3.60
2017-12-12T14:12:34.910Z,3.70
2017-12-12T14:15:02.373Z,3.87
2017-12-12T14:17:29.845Z,2.10
2017-12-12T14:19:58.076Z,2.50
2017-12-12T14:22:25.535Z,2.60
2017-12-12T14:24:53.003Z,2.60
2017-12-12T14:27:20.460Z,3.40
2017-12-12T14:29:47.926Z,3.27
2017-12-12T14:32:15.432Z,4.10
2017-12-12T14:34:42.879Z,3.33
2017-12-12T14:37:10.348Z,3.20
2017-12-12T14:39:37.822Z,2.97
2017-12-12T14:42:06.096Z,3.57
2017-12-12T14:44:33.571Z,3.10
2017-12-12T14:47:01.036Z,4.10
2017-12-12T14:49:29.422Z,4.10
2017-12-12T14:51:57.684Z,4.07
2017-12-12T14:54:25.139Z,4.50
2017-12-12T14:56:52.623Z,4.17
2017-12-12T14:59:20.095Z,4.73
2017-12-12T15:01:48.351Z,5.20
2017-12-12T15:04:15.827Z,4.63
2017-12-12T15:06:44.137Z,4.63
2017-12-12T15:09:11.583Z,5.30
2017-12-12T15:11:39.052Z,5.20
2017-12-12T15:14:06.515Z,5.73
2017-12-12T15:16:34.007Z,5.00
2017-12-12T15:19:01.483Z,3.90
2017-12-12T15:21:29.718Z,5.60
2017-12-12T15:23:57.936Z,4.57
2017-12-12T15:26:26.248Z,4.07
2017-12-12T15:28:53.703Z,3.67
2017-12-12T15:31:21.163Z,3.47
2017-12-12T15:33:48.653Z,3.73
2017-12-12T15:36:16.104Z,2.20
2017-12-12T15:38:43.564Z,2.00
2017-12-12T15:41:11.039Z,1.83
2017-12-12T15:43:38.504Z,1.60
2017-12-12T15:46:05.958Z,1.50
2017-12-12T15:48:34.204Z,1.73
2017-12-12T15:51:01.678Z,1.73
2017-12-12T15:53:29.139Z,1.90
2017-12-12T15:55:57.419Z,2.20
2017-12-12T15:58:24.871Z,1.90
2017-12-12T16:00:52.331Z,2.60
2017-12-12T16:03:19.807Z,2.83
2017-12-12T16:05:48.028Z,1.83
2017-12-12T16:08:16.119Z,2.20
2017-12-12T16:10:43.591Z,2.13
2017-12-12T16:13:11.064Z,2.20
2017-12-12T16:15:39.279Z,2.40
2017-12-12T16:18:06.751Z,2.20
2017-12-12T16:20:34.214Z,1.90
2017-12-12T16:23:01.684Z,2.33
2017-12-12T16:25:29.138Z,2.33
2017-12-12T16:27:56.816Z,2.10
2017-12-12T16:30:24.274Z,2.70
2017-12-12T16:32:52.497Z,2.70
2017-12-12T16:35:19.963Z,2.30
2017-12-12T16:37:48.188Z,2.60
2017-12-12T16:40:16.646Z,3.27
2017-12-12T16:42:44.140Z,3.30
2017-12-12T16:45:11.610Z,2.67
2017-12-12T16:47:39.142Z,3.10
2017-12-12T16:50:07.393Z,3.20
2017-12-12T16:52:34.855Z,3.07
2017-12-12T16:55:02.340Z,2.80
2017-12-12T16:57:29.802Z,2.90
2017-12-12T16:59:58.025Z,2.43
2017-12-12T17:02:25.495Z,2.23
2017-12-12T17:04:52.956Z,2.03
2017-12-12T17:07:20.453Z,2.60
2017-12-12T17:09:47.937Z,2.57
2017-12-12T17:12:15.391Z,2.37
2017-12-12T17:14:42.851Z,2.30
2017-12-12T17:17:10.908Z,2.20
2017-12-12T17:19:38.366Z,2.33
2017-12-12T17:22:05.832Z,2.83
2017-12-12T17:24:33.299Z,3.23
2017-12-12T17:27:00.764Z,2.77
2017-12-12T17:29:28.219Z,2.37
2017-12-12T17:31:55.702Z,2.43
2017-12-12T17:34:23.964Z,3.10
2017-12-12T17:36:51.442Z,3.23
2017-12-12T17:39:19.769Z,4.20
2017-12-12T17:41:47.267Z,3.60
2017-12-12T17:44:15.543Z,4.30
2017-12-12T17:46:43.856Z,4.57
2017-12-12T17:49:11.396Z,5.03
2017-12-12T17:51:38.980Z,5.67
2017-12-12T17:54:06.576Z,6.37
2017-12-12T17:56:34.161Z,7.43
2017-12-12T17:59:01.782Z,7.20
2017-12-12T18:01:29.389Z,9.40
2017-12-12T18:03:57.780Z,10.23
2017-12-12T18:06:25.444Z,11.10
2017-12-12T18:08:52.974Z,12.80
2017-12-12T18:11:21.303Z,13.40
2017-12-12T18:13:48.831Z,13.20
2017-12-12T18:16:16.393Z,14.80
2017-12-12T18:18:43.948Z,16.00
2017-12-12T18:21:11.496Z,16.40
2017-12-12T18:23:39.790Z,16.30
2017-12-12T18:26:07.316Z,18.57
2017-12-12T18:28:34.846Z,19.10
2017-12-12T18:31:02.390Z,20.83
2017-12-12T18:33:29.928Z,19.53
2017-12-12T18:35:57.484Z,19.50
2017-12-12T18:38:25.020Z,20.80
2017-12-12T18:40:53.320Z,18.60
2017-12-12T18:43:20.886Z,21.40
2017-12-12T18:45:48.392Z,20.50
2017-12-12T18:48:16.155Z,21.10
2017-12-12T18:50:43.739Z,21.53
2017-12-12T18:53:12.043Z,21.13
2017-12-12T18:55:40.523Z,22.07
2017-12-12T18:58:08.109Z,23.87
2017-12-12T19:00:35.791Z,22.80
2017-12-12T19:03:03.435Z,22.67
2017-12-12T19:05:31.044Z,26.67
2017-12-12T19:07:58.690Z,24.97
2017-12-12T19:10:27.037Z,28.77
2017-12-12T19:12:54.623Z,23.63
2017-12-12T19:15:22.947Z,27.67
2017-12-12T19:17:50.500Z,25.00
2017-12-12T19:20:18.125Z,27.50
2017-12-12T19:22:46.480Z,27.50
2017-12-12T19:25:14.072Z,28.67
2017-12-12T19:27:41.663Z,27.97
2017-12-12T19:30:09.230Z,25.33
2017-12-12T19:32:36.857Z,30.30
2017-12-12T19:35:04.525Z,28.83
2017-12-12T19:37:32.144Z,32.47
2017-12-12T19:39:59.766Z,34.77
2017-12-12T19:42:27.361Z,31.40
2017-12-12T19:44:55.790Z,32.53
2017-12-12T19:47:23.336Z,29.37
2017-12-12T19:49:51.624Z,30.40
2017-12-12T19:52:19.168Z,26.83
2017-12-12T19:54:47.455Z,30.47
2017-12-12T19:57:15.697Z,30.70
2017-12-12T19:59:43.206Z,31.33
2017-12-12T20:02:10.702Z,28.87
2017-12-12T20:04:38.177Z,28.47
2017-12-12T20:07:05.656Z,34.43
2017-12-12T20:09:33.204Z,29.70
2017-12-12T20:12:00.711Z,31.37
2017-12-12T20:14:28.310Z,30.33
2017-12-12T20:16:55.799Z,26.40
2017-12-12T20:19:23.310Z,32.50
2017-12-12T20:21:50.824Z,34.23
2017-12-12T20:24:18.320Z,32.67
2017-12-12T20:26:45.766Z,28.47
2017-12-12T20:29:13.247Z,29.83
2017-12-12T20:31:40.710Z,31.50
2017-12-12T20:34:08.545Z,29.43
2017-12-12T20:36:36.041Z,28.07
2017-12-12T20:39:04.272Z,26.17
2017-12-12T20:41:31.751Z,30.50
2017-12-12T20:43:59.239Z,30.73
2017-12-12T20:46:27.478Z,28.03
2017-12-12T20:48:55.231Z,27.33
2017-12-12T20:51:22.696Z,25.13
2017-12-12T20:53:50.180Z,25.30
2017-12-12T20:56:18.433Z,30.60
2017-12-12T20:58:45.922Z,27.33
2017-12-12T21:01:14.162Z,28.07
2017-12-12T21:03:41.654Z,26.30
2017-12-12T21:06:09.118Z,27.10
2017-12-12T21:08:37.383Z,30.50
2017-12-12T21:11:05.643Z,29.40
2017-12-12T21:13:33.186Z,24.40
2017-12-12T21:16:00.674Z,24.60
2017-12-12T21:18:28.929Z,24.53
2017-12-12T21:20:56.433Z,25.60
2017-12-12T21:23:23.910Z,27.23
2017-12-12T21:25:51.391Z,25.37
2017-12-12T21:28:18.876Z,24.67
2017-12-12T21:30:47.131Z,27.30
2017-12-12T21:33:15.400Z,23.63
2017-12-12T21:35:42.880Z,24.73
2017-12-12T21:38:11.118Z,23.90
2017-12-12T21:40:38.604Z,22.53
2017-12-12T21:43:06.076Z,24.00
2017-12-12T21:45:34.328Z,23.40
2017-12-12T21:48:02.095Z,22.97
2017-12-12T21:50:29.604Z,28.60
2017-12-12T21:52:57.074Z,26.20
2017-12-12T21:55:24.540Z,23.57
2017-12-12T21:57:52.007Z,25.80
2017-12-12T22:00:19.482Z,24.43
2017-12-12T22:02:46.949Z,25.90
2017-12-12T22:05:15.517Z,26.13
2017-12-12T22:07:42.991Z,27.60
2017-12-12T22:10:11.222Z,28.10
2017-12-12T22:12:38.699Z,23.80
2017-12-12T22:15:06.168Z,23.03
2017-12-12T22:17:33.659Z,25.90
2017-12-12T22:20:01.131Z,25.77
2017-12-12T22:22:28.590Z,24.40
2017-12-12T22:24:56.051Z,23.60
2017-12-12T22:27:23.536Z,26.33
2017-12-12T22:29:51.763Z,25.87
2017-12-12T22:32:19.992Z,25.10
2017-12-12T22:34:47.479Z,23.47
2017-12-12T22:37:14.983Z,23.13
2017-12-12T22:39:42.440Z,24.57
2017-12-12T22:42:09.918Z,23.27
2017-12-12T22:44:38.138Z,23.83
2017-12-12T22:47:05.595Z,21.47
2017-12-12T22:49:33.173Z,24.03
2017-12-12T22:52:00.628Z,21.43
2017-12-12T22:54:28.090Z,23.20
2017-12-12T22:56:55.570Z,23.07
2017-12-12T22:59:23.810Z,22.43
2017-12-12T23:01:51.278Z,24.03
2017-12-12T23:04:18.747Z,24.20
2017-12-12T23:06:46.208Z,23.10
2017-12-12T23:09:14.469Z,22.97
2017-12-12T23:11:41.936Z,23.70
2017-12-12T23:14:09.408Z,21.60
2017-12-12T23:16:37.653Z,23.77
2017-12-12T23:19:05.122Z,19.63
2017-12-12T23:21:32.585Z,22.80
2017-12-12T23:24:00.062Z,22.23
2017-12-12T23:26:27.538Z,21.00
2017-12-12T23:28:55.035Z,20.70
2017-12-12T23:31:22.501Z,22.17
2017-12-12T23:33:49.973Z,18.13
2017-12-12T23:36:18.261Z,20.83
2017-12-12T23:38:46.498Z,18.53
2017-12-12T23:41:14.028Z,18.60
2017-12-12T23:43:42.222Z,20.90
2017-12-12T23:46:09.759Z,19.77
2017-12-12T23:48:37.234Z,18.33
2017-12-12T23:51:04.718Z,19.90
2017-12-12T23:53:32.192Z,21.07
2017-12-12T23:56:00.431Z,18.87
2017-12-12T23:58:27.903Z,18.60
